Owl — WDJ5709 — position and weather

sailwx.info

Track history (hours):
 
Tides and Currents Weather Stations Pressure Air Temp Water Temp Dewpoint Dewpoint Depression Visibility Wind Speed Wind Dir Waves Ship Positions

Owl

Owner: Vista vision llc, groton, CT. More information available from US FCC via Universal Licensing System and Coast Guard Vessel Documentation Center.

Last reported at 2017-Oct-19 21:48 UTC. Time now 2017-Oct-20 01:34 UTC.
Position N 34°43' W 076°40'.

Length 16 m.

Type: Pleasure craft. MMSI: 367790490.

Date/timePositionNaut miles runAvg speedWind from/ knotsBaromVisibWave heightAir tempDewpointWater temp
2017-Oct-19 21:48N 34°43' W 076°40'1 3.8
2017-Oct-19 21:30N 34°42' W 076°41'510.8
2017-Oct-19 21:00N 34°48' W 076°41'  
2017-Oct-16 15:10N 36°43' W 076°14'1 1.4
2017-Oct-16 14:07N 36°44' W 076°16'3 4.9
2017-Oct-16 13:30N 36°46' W 076°18'2 4.4
2017-Oct-16 13:00N 36°49' W 076°17'128 8.8
2017-Oct-15 22:28N 38°56' W 076°26'3 7.5
2017-Oct-15 22:00N 38°59' W 076°29'  
2017-Oct-10 14:44N 38°59' W 076°29'5 6.5
2017-Oct-10 13:56N 38°54' W 076°26'4 8.4
2017-Oct-10 13:28N 38°52' W 076°30'  
Track history (hours):
 
Tides and Currents Weather Stations Pressure Air Temp Water Temp Dewpoint Dewpoint Depression Visibility Wind Speed Wind Dir Waves Ship Positions

Owl

Owner: Vista vision llc, groton, CT. More information available from US FCC via Universal Licensing System and Coast Guard Vessel Documentation Center.

Last reported at 2017-Oct-19 21:48 UTC. Time now 2017-Oct-20 01:34 UTC.
Position N 34°43' W 076°40'.

Length 16 m.

Type: Pleasure craft. MMSI: 367790490.

Date/timePositionNaut miles runAvg speedWind from/ knotsBaromVisibWave heightAir tempDewpointWater temp
2017-Oct-19 21:48N 34°43' W 076°40'1 3.8
2017-Oct-19 21:30N 34°42' W 076°41'510.8
2017-Oct-19 21:00N 34°48' W 076°41'  
2017-Oct-16 15:10N 36°43' W 076°14'1 1.4
2017-Oct-16 14:07N 36°44' W 076°16'3 4.9
2017-Oct-16 13:30N 36°46' W 076°18'2 4.4
2017-Oct-16 13:00N 36°49' W 076°17'128 8.8
2017-Oct-15 22:28N 38°56' W 076°26'3 7.5
2017-Oct-15 22:00N 38°59' W 076°29'  
2017-Oct-10 14:44N 38°59' W 076°29'5 6.5
2017-Oct-10 13:56N 38°54' W 076°26'4 8.4
2017-Oct-10 13:28N 38°52' W 076°30'  

Dump ship's entire track history